createdAt,value
2022-10-21T00:03:37.569Z,12.83
2022-10-21T00:08:45.411Z,15.10
2022-10-21T00:13:53.271Z,16.00
2022-10-21T00:19:01.540Z,14.53
2022-10-21T00:24:10.073Z,15.60
2022-10-21T00:29:18.520Z,14.47
2022-10-21T00:34:30.033Z,16.33
2022-10-21T00:39:36.004Z,12.70
2022-10-21T00:44:44.192Z,12.07
2022-10-21T00:49:55.106Z,13.27
2022-10-21T00:55:04.363Z,15.13
2022-10-21T01:00:12.603Z,15.40
2022-10-21T01:05:20.862Z,14.97
2022-10-21T01:10:28.738Z,14.97
2022-10-21T01:15:39.673Z,14.97
2022-10-21T01:20:50.608Z,17.80
2022-10-21T01:26:03.210Z,15.53
2022-10-21T01:31:14.208Z,16.60
2022-10-21T01:36:26.010Z,17.90
2022-10-21T01:46:51.429Z,15.73
2022-10-21T01:52:00.706Z,16.17
2022-10-21T01:57:08.668Z,14.40
2022-10-21T02:02:17.281Z,15.47
2022-10-21T02:07:25.105Z,16.50
2022-10-21T02:12:33.186Z,15.80
2022-10-21T02:17:41.455Z,15.17
2022-10-21T02:22:49.585Z,16.43
2022-10-21T02:27:57.884Z,14.43
2022-10-21T02:33:08.463Z,15.27
2022-10-21T02:38:19.995Z,15.77
2022-10-21T02:43:31.338Z,15.20
2022-10-21T02:48:39.928Z,15.30
2022-10-21T02:53:47.905Z,15.73
2022-10-21T02:58:56.823Z,14.73
2022-10-21T03:04:04.720Z,16.07
2022-10-21T03:09:12.516Z,16.83
2022-10-21T03:14:20.491Z,15.10
2022-10-21T03:19:29.273Z,14.47
2022-10-21T03:24:38.320Z,15.17
2022-10-21T03:29:46.158Z,16.17
2022-10-21T03:34:53.960Z,17.23
2022-10-21T03:40:02.296Z,15.17
2022-10-21T03:45:10.856Z,14.70
2022-10-21T03:50:23.742Z,14.60
2022-10-21T03:55:28.733Z,14.70
2022-10-21T04:00:37.065Z,13.47
2022-10-21T04:05:44.942Z,11.50
2022-10-21T04:10:52.830Z,11.83
2022-10-21T04:16:02.176Z,11.27
2022-10-21T04:21:12.101Z,12.10
2022-10-21T04:26:20.362Z,10.93
2022-10-21T04:31:31.334Z,12.07
2022-10-21T04:36:37.889Z,11.23
2022-10-21T04:41:45.978Z,11.97
2022-10-21T04:46:53.821Z,10.30
2022-10-21T04:52:01.642Z,11.70
2022-10-21T04:57:09.629Z,10.83
2022-10-21T05:02:19.392Z,11.07
2022-10-21T05:07:26.914Z,11.57
2022-10-21T05:17:44.393Z,11.53
2022-10-21T05:22:54.698Z,11.77
2022-10-21T05:28:02.672Z,10.10
2022-10-21T05:33:11.398Z,10.83
2022-10-21T05:38:19.696Z,10.03
2022-10-21T05:43:28.398Z,9.60
2022-10-21T05:48:37.646Z,10.10
2022-10-21T05:53:45.924Z,10.47
2022-10-21T05:58:54.477Z,9.67
2022-10-21T06:04:02.276Z,8.33
2022-10-21T06:09:10.255Z,7.97
2022-10-21T06:14:19.756Z,7.13
2022-10-21T06:19:27.991Z,8.43
2022-10-21T06:24:35.777Z,8.20
2022-10-21T06:29:43.635Z,8.27
2022-10-21T06:34:51.648Z,7.73
2022-10-21T06:39:59.850Z,8.23
2022-10-21T06:45:08.126Z,8.10
2022-10-21T06:50:16.664Z,8.00
2022-10-21T06:55:25.175Z,6.50
2022-10-21T07:00:33.444Z,7.17
2022-10-21T07:05:41.269Z,7.33
2022-10-21T07:10:49.095Z,7.80
2022-10-21T07:16:00.604Z,7.10
2022-10-21T07:21:10.478Z,7.10
2022-10-21T07:26:18.436Z,6.70
2022-10-21T07:31:26.254Z,6.37
2022-10-21T07:36:36.035Z,6.37
2022-10-21T07:41:45.905Z,6.03
2022-10-21T07:46:54.987Z,4.73
2022-10-21T07:52:04.635Z,5.03
2022-10-21T07:57:21.133Z,5.13
2022-10-21T08:02:47.526Z,4.70
2022-10-21T08:07:55.969Z,4.40
2022-10-21T08:13:04.384Z,4.63
2022-10-21T08:18:13.507Z,4.70
2022-10-21T08:23:22.425Z,4.50
2022-10-21T08:28:31.230Z,4.03
2022-10-21T08:33:39.090Z,4.10
2022-10-21T08:38:54.609Z,4.47
2022-10-21T08:44:06.355Z,4.23
2022-10-21T08:49:17.447Z,5.37
2022-10-21T08:54:27.766Z,5.10
2022-10-21T08:59:35.592Z,4.47
2022-10-21T09:04:45.659Z,4.80
2022-10-21T09:09:56.646Z,5.13
2022-10-21T09:15:11.164Z,4.50
2022-10-21T09:20:20.700Z,4.67
2022-10-21T09:25:31.977Z,4.20
2022-10-21T09:30:41.956Z,5.43
2022-10-21T09:35:52.465Z,5.30
2022-10-21T09:41:02.133Z,5.60
2022-10-21T09:46:13.149Z,5.00
2022-10-21T09:51:24.209Z,5.13
2022-10-21T09:56:35.170Z,4.27
2022-10-21T10:01:43.899Z,4.40
2022-10-21T10:06:51.841Z,2.93
2022-10-21T10:12:02.250Z,3.40
2022-10-21T10:17:13.240Z,2.90
2022-10-21T10:22:21.129Z,2.77
2022-10-21T10:27:28.915Z,3.07
2022-10-21T10:32:37.059Z,3.13
2022-10-21T10:37:47.479Z,3.17
2022-10-21T10:42:58.636Z,3.23
2022-10-21T10:48:07.600Z,3.23
2022-10-21T10:53:22.147Z,3.00
2022-10-21T10:58:31.056Z,3.30
2022-10-21T11:03:43.815Z,3.90
2022-10-21T11:08:54.401Z,2.67
2022-10-21T11:14:02.312Z,4.13
2022-10-21T11:19:13.377Z,3.53
2022-10-21T11:24:25.397Z,3.80
2022-10-21T11:34:51.039Z,3.90
2022-10-21T11:40:02.499Z,3.67
2022-10-21T11:45:14.243Z,3.73
2022-10-21T11:50:25.815Z,3.20
2022-10-21T12:00:49.881Z,4.20
2022-10-21T12:06:00.834Z,3.47
2022-10-21T12:11:16.436Z,3.47
2022-10-21T12:16:27.196Z,4.20
2022-10-21T12:21:37.298Z,3.60
2022-10-21T12:26:48.465Z,4.13
2022-10-21T12:37:13.994Z,4.63
2022-10-21T12:42:25.566Z,4.00
2022-10-21T12:47:35.931Z,3.90
2022-10-21T12:52:44.273Z,3.67
2022-10-21T12:57:59.871Z,4.53
2022-10-21T13:03:11.514Z,3.50
2022-10-21T13:08:23.129Z,4.17
2022-10-21T13:18:50.756Z,3.40
2022-10-21T13:24:02.405Z,4.30
2022-10-21T13:34:29.852Z,4.40
2022-10-21T13:44:59.361Z,4.20
2022-10-21T13:50:10.370Z,4.47
2022-10-21T13:55:22.452Z,3.83
2022-10-21T14:00:31.660Z,3.90
2022-10-21T14:05:42.545Z,4.10
2022-10-21T14:10:50.384Z,4.20
2022-10-21T14:15:59.026Z,4.53
2022-10-21T14:21:08.785Z,4.20
2022-10-21T14:26:17.084Z,3.90
2022-10-21T14:31:24.957Z,4.47
2022-10-21T14:36:35.663Z,4.90
2022-10-21T14:41:46.569Z,5.17
2022-10-21T14:46:54.640Z,4.97
2022-10-21T14:52:04.679Z,4.63
2022-10-21T14:57:15.736Z,5.23
2022-10-21T15:02:26.840Z,5.60
2022-10-21T15:07:38.011Z,5.40
2022-10-21T15:12:50.757Z,5.90
2022-10-21T15:18:02.918Z,5.90
2022-10-21T15:23:13.512Z,5.53
2022-10-21T15:28:21.303Z,6.00
2022-10-21T15:33:30.382Z,7.03
2022-10-21T15:38:40.153Z,6.63
2022-10-21T15:43:51.244Z,7.20
2022-10-21T15:48:59.299Z,7.10
2022-10-21T15:54:07.380Z,7.60
2022-10-21T15:59:19.154Z,6.53
2022-10-21T16:04:27.130Z,7.30
2022-10-21T16:09:35.499Z,7.83
2022-10-21T16:14:44.078Z,7.93
2022-10-21T16:19:53.474Z,8.10
2022-10-21T16:25:02.072Z,8.37
2022-10-21T16:30:13.219Z,8.80
2022-10-21T16:35:22.374Z,9.17
2022-10-21T16:40:34.065Z,7.90
2022-10-21T16:45:41.989Z,9.30
2022-10-21T16:50:50.558Z,9.47
2022-10-21T16:55:58.758Z,9.97
2022-10-21T17:01:08.996Z,10.60
2022-10-21T17:06:21.262Z,10.77
2022-10-21T17:11:33.370Z,12.80
2022-10-21T17:16:41.911Z,13.80
2022-10-21T17:21:50.589Z,13.63
2022-10-21T17:26:58.601Z,10.63
2022-10-21T17:32:08.269Z,13.10
2022-10-21T17:37:17.703Z,10.07
2022-10-21T17:42:29.614Z,12.13
2022-10-21T17:47:40.425Z,12.27
2022-10-21T17:52:48.835Z,14.43
2022-10-21T17:57:56.827Z,13.73
2022-10-21T18:03:05.409Z,14.73
2022-10-21T18:08:13.738Z,15.63
2022-10-21T18:13:21.848Z,16.17
2022-10-21T18:18:30.585Z,15.73
2022-10-21T18:23:41.892Z,15.50
2022-10-21T18:29:03.870Z,16.20
2022-10-21T18:34:15.144Z,16.23
2022-10-21T18:39:28.205Z,16.53
2022-10-21T18:44:37.296Z,17.80
2022-10-21T18:49:47.089Z,16.50
2022-10-21T18:54:56.764Z,18.33
2022-10-21T19:00:10.507Z,21.00
2022-10-21T19:05:23.302Z,20.90
2022-10-21T19:10:36.833Z,18.13
2022-10-21T19:15:45.196Z,18.03
2022-10-21T19:20:54.286Z,17.33
2022-10-21T19:26:04.457Z,18.27
2022-10-21T19:31:16.920Z,17.20
2022-10-21T19:36:25.896Z,17.90
2022-10-21T19:41:34.835Z,18.27
2022-10-21T19:46:45.107Z,17.07
2022-10-21T19:51:54.275Z,16.37
2022-10-21T19:57:02.594Z,18.83
2022-10-21T20:02:13.013Z,15.73
2022-10-21T20:07:22.661Z,17.80
2022-10-21T20:12:32.396Z,17.10
2022-10-21T20:17:40.421Z,16.40
2022-10-21T20:22:49.061Z,16.53
2022-10-21T20:27:57.323Z,17.07
2022-10-21T20:33:05.323Z,16.07
2022-10-21T20:38:13.237Z,17.50
2022-10-21T20:43:21.241Z,20.63
2022-10-21T20:48:29.489Z,19.07
2022-10-21T20:53:39.067Z,17.50
2022-10-21T20:58:47.805Z,14.93
2022-10-21T21:03:58.466Z,12.53
2022-10-21T21:09:33.198Z,14.20
2022-10-21T21:14:17.366Z,13.00
2022-10-21T21:19:26.347Z,13.00
2022-10-21T21:24:35.534Z,13.33
2022-10-21T21:29:43.371Z,13.00
2022-10-21T21:34:53.943Z,12.73
2022-10-21T21:40:02.478Z,11.97
2022-10-21T21:45:11.409Z,12.87
2022-10-21T21:50:21.865Z,12.97
2022-10-21T21:55:29.686Z,12.07
2022-10-21T22:00:37.857Z,11.40
2022-10-21T22:05:45.699Z,11.90
2022-10-21T22:10:54.064Z,12.37
2022-10-21T22:16:01.946Z,11.60
2022-10-21T22:21:12.309Z,12.53
2022-10-21T22:26:20.735Z,10.60
2022-10-21T22:31:30.535Z,12.00
2022-10-21T22:36:38.107Z,12.60
2022-10-21T22:41:45.907Z,13.27
2022-10-21T22:46:54.804Z,11.33
2022-10-21T22:52:03.183Z,11.93
2022-10-21T22:57:10.964Z,11.07
2022-10-21T23:02:19.634Z,11.17
2022-10-21T23:07:27.964Z,10.97
2022-10-21T23:12:35.800Z,11.27
2022-10-21T23:17:43.624Z,11.37
2022-10-21T23:22:51.426Z,9.87
2022-10-21T23:27:59.778Z,10.80
2022-10-21T23:33:07.673Z,10.27
2022-10-21T23:38:16.132Z,10.63
2022-10-21T23:43:23.972Z,10.60
2022-10-21T23:48:31.792Z,11.30
2022-10-21T23:53:39.628Z,10.40
2022-10-21T23:58:47.461Z,10.70
